createdAt,value
2023-04-05T00:04:29.051Z,5.50
2023-04-05T00:09:33.217Z,4.40
2023-04-05T00:14:37.256Z,4.20
2023-04-05T00:19:43.617Z,4.60
2023-04-05T00:24:47.677Z,4.90
2023-04-05T00:29:51.917Z,4.70
2023-04-05T00:34:56.358Z,4.60
2023-04-05T00:40:00.910Z,4.90
2023-04-05T00:45:05.859Z,4.80
2023-04-05T00:50:12.574Z,4.70
2023-04-05T00:55:17.907Z,4.80
2023-04-05T01:00:23.324Z,4.90
2023-04-05T01:05:33.658Z,4.70
2023-04-05T01:10:43.246Z,4.20
2023-04-05T01:15:47.712Z,4.60
2023-04-05T01:21:24.743Z,4.70
2023-04-05T01:26:44.417Z,5.00
2023-04-05T01:31:55.075Z,4.30
2023-04-05T01:37:09.118Z,4.60
2023-04-05T01:42:13.901Z,5.00
2023-04-05T01:47:17.959Z,4.40
2023-04-05T01:52:22.194Z,5.00
2023-04-05T01:57:26.619Z,4.90
2023-04-05T02:02:30.924Z,6.00
2023-04-05T02:07:34.982Z,4.70
2023-04-05T02:12:39.914Z,4.60
2023-04-05T02:17:46.434Z,5.60
2023-04-05T02:22:52.117Z,5.00
2023-04-05T02:27:56.158Z,5.00
2023-04-05T02:33:00.563Z,4.80
2023-04-05T02:38:05.957Z,5.20
2023-04-05T02:43:11.358Z,5.10
2023-04-05T02:48:16.601Z,5.10
2023-04-05T02:53:21.897Z,5.30
2023-04-05T02:58:32.865Z,5.20
2023-04-05T03:03:38.010Z,4.60
2023-04-05T03:08:44.533Z,5.50
2023-04-05T03:13:50.035Z,5.10
2023-04-05T03:19:06.938Z,5.20
2023-04-05T03:24:12.377Z,5.00
2023-04-05T03:29:18.175Z,5.00
2023-04-05T03:34:29.400Z,4.80
2023-04-05T03:39:37.451Z,5.10
2023-04-05T03:44:42.293Z,5.60
2023-04-05T03:49:46.767Z,5.10
2023-04-05T03:54:51.166Z,4.50
2023-04-05T03:59:57.977Z,5.70
2023-04-05T04:05:05.139Z,5.30
2023-04-05T04:10:12.255Z,5.70
2023-04-05T04:15:16.606Z,5.00
2023-04-05T04:20:35.395Z,5.20
2023-04-05T04:25:58.134Z,4.80
2023-04-05T04:31:26.560Z,5.10
2023-04-05T04:36:43.448Z,5.00
2023-04-05T04:42:20.437Z,4.50
2023-04-05T04:47:47.758Z,5.40
2023-04-05T04:53:20.457Z,5.50
2023-04-05T04:58:26.565Z,5.20
2023-04-05T05:03:39.423Z,5.00
2023-04-05T05:08:43.747Z,5.60
2023-04-05T05:13:51.864Z,5.60
2023-04-05T05:19:00.533Z,5.80
2023-04-05T05:24:11.816Z,5.20
2023-04-05T05:29:15.964Z,6.10
2023-04-05T05:34:22.948Z,5.50
2023-04-05T05:39:30.452Z,5.80
2023-04-05T05:44:34.588Z,6.00
2023-04-05T05:49:38.727Z,5.60
2023-04-05T05:54:42.959Z,5.60
2023-04-05T05:59:47.206Z,5.90
2023-04-05T06:04:51.391Z,5.50
2023-04-05T06:09:55.571Z,6.20
2023-04-05T06:14:59.863Z,5.40
2023-04-05T06:20:04.250Z,5.50
2023-04-05T06:25:09.791Z,5.70
2023-04-05T06:30:14.428Z,5.40
2023-04-05T06:35:18.496Z,5.60
2023-04-05T06:40:22.530Z,5.60
2023-04-05T06:45:26.646Z,6.80
2023-04-05T06:50:31.107Z,6.10
2023-04-05T06:55:35.150Z,5.50
2023-04-05T07:00:39.420Z,6.20
2023-04-05T07:06:00.816Z,5.50
2023-04-05T07:11:04.742Z,6.00
2023-04-05T07:16:09.255Z,6.20
2023-04-05T07:21:13.414Z,5.80
2023-04-05T07:26:17.643Z,6.40
2023-04-05T07:31:21.529Z,7.80
2023-04-05T07:36:27.554Z,6.70
2023-04-05T07:41:35.900Z,7.20
2023-04-05T07:46:46.895Z,6.60
2023-04-05T07:51:56.112Z,7.60
2023-04-05T07:57:01.551Z,6.90
2023-04-05T08:02:14.266Z,6.80
2023-04-05T08:07:18.955Z,6.60
2023-04-05T08:12:22.900Z,6.60
2023-04-05T08:17:28.586Z,7.00
2023-04-05T08:22:32.495Z,6.50
2023-04-05T08:27:36.626Z,6.70
2023-04-05T08:32:40.468Z,7.20
2023-04-05T08:37:45.204Z,6.30
2023-04-05T08:43:15.053Z,5.60
2023-04-05T08:48:20.905Z,7.20
2023-04-05T08:53:24.830Z,5.90
2023-04-05T08:58:32.416Z,6.20
2023-04-05T09:03:38.195Z,6.60
2023-04-05T09:08:42.464Z,6.50
2023-04-05T09:13:46.281Z,6.60
2023-04-05T09:18:51.044Z,6.40
2023-04-05T09:23:56.231Z,5.60
2023-04-05T09:29:01.366Z,6.20
2023-04-05T09:34:06.617Z,6.30
2023-04-05T09:39:10.975Z,5.70
2023-04-05T09:44:15.000Z,5.70
2023-04-05T09:49:34.382Z,5.50
2023-04-05T09:54:45.403Z,5.50
2023-04-05T09:59:50.125Z,5.60
2023-04-05T10:04:54.656Z,6.20
2023-04-05T10:09:58.813Z,5.40
2023-04-05T10:15:03.843Z,5.80
2023-04-05T10:20:20.051Z,4.90
2023-04-05T10:25:32.075Z,5.30
2023-04-05T10:30:39.430Z,5.10
2023-04-05T10:35:46.830Z,5.20
2023-04-05T10:40:55.650Z,5.10
2023-04-05T10:46:00.164Z,4.80
2023-04-05T10:51:04.922Z,5.70
2023-04-05T10:56:09.334Z,5.60
2023-04-05T11:01:14.450Z,4.90
2023-04-05T11:06:20.301Z,5.30
2023-04-05T11:11:25.665Z,4.60
2023-04-05T11:16:40.675Z,4.90
2023-04-05T11:21:47.745Z,5.40
2023-04-05T11:26:55.385Z,5.10
2023-04-05T11:32:11.975Z,5.10
2023-04-05T11:37:15.912Z,5.70
2023-04-05T11:42:20.855Z,4.80
2023-04-05T11:47:24.811Z,4.80
2023-04-05T11:52:28.828Z,4.80
2023-04-05T11:57:33.676Z,4.90
2023-04-05T12:02:37.654Z,4.40
2023-04-05T12:07:41.952Z,10.20
2023-04-05T12:12:48.135Z,10.40
2023-04-05T12:17:54.886Z,10.10
2023-04-05T12:22:59.059Z,9.10
2023-04-05T12:28:07.714Z,8.50
2023-04-05T12:33:11.755Z,7.40
2023-04-05T12:38:17.895Z,7.30
2023-04-05T12:43:23.887Z,7.00
2023-04-05T12:48:27.945Z,7.00
2023-04-05T12:53:32.081Z,6.90
2023-04-05T12:58:37.849Z,7.20
2023-04-05T13:03:45.536Z,6.50
2023-04-05T13:08:50.299Z,6.80
2023-04-05T13:13:54.529Z,6.50
2023-04-05T13:18:58.572Z,6.10
2023-04-05T13:24:03.109Z,5.70
2023-04-05T13:29:07.959Z,5.90
2023-04-05T13:34:12.101Z,5.90
2023-04-05T13:39:16.339Z,5.70
2023-04-05T13:44:20.255Z,5.30
2023-04-05T13:49:25.619Z,4.70
2023-04-05T13:54:32.870Z,4.40
2023-04-05T13:59:37.425Z,4.30
2023-04-05T14:04:42.574Z,4.40
2023-04-05T14:09:46.770Z,4.00
2023-04-05T14:14:51.363Z,4.30
2023-04-05T14:19:55.348Z,4.20
2023-04-05T14:24:59.587Z,4.00
2023-04-05T14:30:04.328Z,4.00
2023-04-05T14:35:09.418Z,4.20
2023-04-05T14:40:13.854Z,3.50
2023-04-05T14:45:19.010Z,4.00
2023-04-05T14:50:23.144Z,3.90
2023-04-05T14:55:28.397Z,3.30
2023-04-05T15:00:34.536Z,5.50
2023-04-05T15:05:38.913Z,4.40
2023-04-05T15:10:43.833Z,4.50
2023-04-05T15:15:49.367Z,5.10
2023-04-05T15:20:54.288Z,4.70
2023-04-05T15:25:58.639Z,5.20
2023-04-05T15:31:02.691Z,5.10
2023-04-05T15:36:07.849Z,4.30
2023-04-05T15:41:12.043Z,4.00
2023-04-05T15:46:16.150Z,4.30
2023-04-05T15:51:22.061Z,4.20
2023-04-05T15:56:28.234Z,3.70
2023-04-05T16:01:32.726Z,4.00
2023-04-05T16:06:36.715Z,3.90
2023-04-05T16:11:41.064Z,3.40
2023-04-05T16:16:53.182Z,3.70
2023-04-05T16:21:58.427Z,4.00
2023-04-05T16:27:03.088Z,3.20
2023-04-05T16:32:08.394Z,3.20
2023-04-05T16:37:13.577Z,3.60
2023-04-05T16:42:17.726Z,3.20
2023-04-05T16:47:22.183Z,3.50
2023-04-05T16:52:26.527Z,3.60
2023-04-05T16:57:34.278Z,3.20
2023-04-05T17:02:41.748Z,3.30
2023-04-05T17:07:47.317Z,3.70
2023-04-05T17:12:51.325Z,3.40
2023-04-05T17:17:55.925Z,4.00
2023-04-05T17:23:01.450Z,4.20
2023-04-05T17:28:07.032Z,3.60
2023-04-05T17:33:11.600Z,3.80
2023-04-05T17:38:16.227Z,3.50
2023-04-05T17:43:21.834Z,2.70
2023-04-05T17:48:29.768Z,2.90
2023-04-05T17:53:34.367Z,2.90
2023-04-05T17:58:38.590Z,3.80
2023-04-05T18:03:42.880Z,4.20
2023-04-05T18:08:48.112Z,3.90
2023-04-05T18:13:52.340Z,3.20
2023-04-05T18:18:56.701Z,3.70
2023-04-05T18:24:01.730Z,3.30
2023-04-05T18:29:05.989Z,4.00
2023-04-05T18:34:11.116Z,4.10
2023-04-05T18:39:16.031Z,4.90
2023-04-05T18:44:20.323Z,4.60
2023-04-05T18:49:24.558Z,5.10
2023-04-05T18:54:28.686Z,4.40
2023-04-05T18:59:33.180Z,4.70
2023-04-05T19:04:38.082Z,4.90
2023-04-05T19:09:43.475Z,5.10
2023-04-05T19:14:48.034Z,5.30
2023-04-05T19:19:52.539Z,5.10
2023-04-05T19:24:58.210Z,6.00
2023-04-05T19:30:06.913Z,5.80
2023-04-05T19:35:13.847Z,7.00
2023-04-05T19:40:20.508Z,6.00
2023-04-05T19:45:31.120Z,6.10
2023-04-05T19:50:56.284Z,6.00
2023-04-05T19:56:01.371Z,6.80
2023-04-05T20:01:07.870Z,7.00
2023-04-05T20:06:15.373Z,7.40
2023-04-05T20:11:23.312Z,7.10
2023-04-05T20:16:33.716Z,7.80
2023-04-05T20:21:39.747Z,6.90
2023-04-05T20:26:44.809Z,7.30
2023-04-05T20:31:49.419Z,7.30
2023-04-05T20:37:02.783Z,6.90
2023-04-05T20:42:09.885Z,7.10
2023-04-05T20:47:15.752Z,8.90
2023-04-05T20:52:24.681Z,7.80
2023-04-05T20:57:31.112Z,8.00
2023-04-05T21:02:38.370Z,7.10
2023-04-05T21:07:44.428Z,7.20
2023-04-05T21:12:49.673Z,7.50
2023-04-05T21:18:04.027Z,7.30
2023-04-05T21:23:09.088Z,7.50
2023-04-05T21:28:14.589Z,7.30
2023-04-05T21:33:22.002Z,7.10
2023-04-05T21:38:26.504Z,7.40
2023-04-05T21:43:31.079Z,7.20
2023-04-05T21:48:35.592Z,7.00
2023-04-05T21:53:40.155Z,6.70
2023-04-05T21:58:45.304Z,6.80
2023-04-05T22:03:49.751Z,7.00
2023-04-05T22:08:54.899Z,6.60
2023-04-05T22:13:59.937Z,6.40
2023-04-05T22:19:03.988Z,8.70
2023-04-05T22:24:09.262Z,6.60
2023-04-05T22:29:13.185Z,7.30
2023-04-05T22:34:17.316Z,6.90
2023-04-05T22:39:21.246Z,7.40
2023-04-05T22:44:25.476Z,7.50
2023-04-05T22:49:29.513Z,7.40
2023-04-05T22:54:33.460Z,8.60
2023-04-05T22:59:37.928Z,7.30
2023-04-05T23:04:42.616Z,7.80
2023-04-05T23:09:47.620Z,7.90
2023-04-05T23:14:52.450Z,8.30
2023-04-05T23:19:56.393Z,8.60
2023-04-05T23:25:03.441Z,9.00
2023-04-05T23:30:08.221Z,8.50
2023-04-05T23:35:12.108Z,8.40
2023-04-05T23:40:15.972Z,8.40
2023-04-05T23:45:19.817Z,8.80
2023-04-05T23:50:23.835Z,9.00
2023-04-05T23:55:27.979Z,9.30
